sensor_id;sensor_type;location;lat;lon;timestamp;temperature;humidity
9939;DHT22;5008;50.656;7.188;2024-03-23T05:00:44;7.10;99.90
9939;DHT22;5008;50.656;7.188;2024-03-23T05:03:11;7.20;99.90
9939;DHT22;5008;50.656;7.188;2024-03-23T05:05:37;7.20;99.90
9939;DHT22;5008;50.656;7.188;2024-03-23T05:08:05;7.20;99.90
9939;DHT22;5008;50.656;7.188;2024-03-23T05:10:31;7.20;99.90
9939;DHT22;5008;50.656;7.188;2024-03-23T05:12:58;7.20;99.90
9939;DHT22;5008;50.656;7.188;2024-03-23T05:15:24;7.10;99.90
9939;DHT22;5008;50.656;7.188;2024-03-23T05:17:52;7.10;99.90
9939;DHT22;5008;50.656;7.188;2024-03-23T05:20:19;7.10;99.90
9939;DHT22;5008;50.656;7.188;2024-03-23T05:22:45;7.20;99.90
9939;DHT22;5008;50.656;7.188;2024-03-23T05:25:12;7.10;99.90
9939;DHT22;5008;50.656;7.188;2024-03-23T05:27:38;7.10;99.90
9939;DHT22;5008;50.656;7.188;2024-03-23T05:30:09;7.20;99.90
9939;DHT22;5008;50.656;7.188;2024-03-23T05:32:36;7.10;99.90
9939;DHT22;5008;50.656;7.188;2024-03-23T05:35:07;7.10;99.90
9939;DHT22;5008;50.656;7.188;2024-03-23T05:37:33;7.00;99.90
9939;DHT22;5008;50.656;7.188;2024-03-23T05:40:00;7.10;99.90
9939;DHT22;5008;50.656;7.188;2024-03-23T05:42:26;7.00;99.90
9939;DHT22;5008;50.656;7.188;2024-03-23T05:44:53;7.00;99.90
9939;DHT22;5008;50.656;7.188;2024-03-23T05:47:19;7.00;99.90
9939;DHT22;5008;50.656;7.188;2024-03-23T05:49:46;7.10;99.90
9939;DHT22;5008;50.656;7.188;2024-03-23T05:52:13;7.10;99.90
9939;DHT22;5008;50.656;7.188;2024-03-23T05:54:40;7.10;99.90
9939;DHT22;5008;50.656;7.188;2024-03-23T05:57:09;7.10;99.90
9939;DHT22;5008;50.656;7.188;2024-03-23T05:59:38;7.10;99.90
9939;DHT22;5008;50.656;7.188;2024-03-23T06:02:03;7.20;99.90
9939;DHT22;5008;50.656;7.188;2024-03-23T06:04:30;7.10;99.90
9939;DHT22;5008;50.656;7.188;2024-03-23T06:06:56;7.10;99.90
9939;DHT22;5008;50.656;7.188;2024-03-23T06:09:25;7.10;99.90
9939;DHT22;5008;50.656;7.188;2024-03-23T06:11:51;7.20;99.90
9939;DHT22;5008;50.656;7.188;2024-03-23T06:14:18;7.10;99.90
9939;DHT22;5008;50.656;7.188;2024-03-23T06:16:43;7.30;99.90
9939;DHT22;5008;50.656;7.188;2024-03-23T06:19:10;7.40;99.90
9939;DHT22;5008;50.656;7.188;2024-03-23T06:21:36;7.40;99.90
9939;DHT22;5008;50.656;7.188;2024-03-23T06:24:03;7.40;99.90
9939;DHT22;5008;50.656;7.188;2024-03-23T06:26:32;7.40;99.90
9939;DHT22;5008;50.656;7.188;2024-03-23T06:28:57;7.50;99.90
9939;DHT22;5008;50.656;7.188;2024-03-23T06:31:24;7.40;99.90
9939;DHT22;5008;50.656;7.188;2024-03-23T06:33:50;7.40;99.90
9939;DHT22;5008;50.656;7.188;2024-03-23T06:36:16;7.40;99.90
9939;DHT22;5008;50.656;7.188;2024-03-23T06:38:45;7.40;99.90
9939;DHT22;5008;50.656;7.188;2024-03-23T06:41:12;7.40;99.90
9939;DHT22;5008;50.656;7.188;2024-03-23T06:43:39;7.50;99.90
9939;DHT22;5008;50.656;7.188;2024-03-23T06:46:06;7.60;99.90
9939;DHT22;5008;50.656;7.188;2024-03-23T06:48:32;7.60;99.90
9939;DHT22;5008;50.656;7.188;2024-03-23T06:50:59;7.60;99.90
9939;DHT22;5008;50.656;7.188;2024-03-23T06:53:25;7.50;99.90
9939;DHT22;5008;50.656;7.188;2024-03-23T06:55:52;7.60;99.90
9939;DHT22;5008;50.656;7.188;2024-03-23T06:58:19;7.50;99.90
9939;DHT22;5008;50.656;7.188;2024-03-23T07:00:47;7.50;99.90
9939;DHT22;5008;50.656;7.188;2024-03-23T07:03:15;7.40;99.90
9939;DHT22;5008;50.656;7.188;2024-03-23T07:05:41;7.50;99.90
9939;DHT22;5008;50.656;7.188;2024-03-23T07:08:08;7.50;99.90
9939;DHT22;5008;50.656;7.188;2024-03-23T07:10:35;7.40;99.90
9939;DHT22;5008;50.656;7.188;2024-03-23T07:13:01;7.60;99.90
9939;DHT22;5008;50.656;7.188;2024-03-23T07:15:28;7.60;99.90
9939;DHT22;5008;50.656;7.188;2024-03-23T07:17:55;7.70;99.90
9939;DHT22;5008;50.656;7.188;2024-03-23T07:20:22;7.70;99.90
9939;DHT22;5008;50.656;7.188;2024-03-23T07:22:48;7.80;99.90
9939;DHT22;5008;50.656;7.188;2024-03-23T07:25:15;7.90;99.90
9939;DHT22;5008;50.656;7.188;2024-03-23T07:27:41;7.90;99.90
9939;DHT22;5008;50.656;7.188;2024-03-23T07:30:08;8.10;99.90
9939;DHT22;5008;50.656;7.188;2024-03-23T07:32:34;8.10;99.90
9939;DHT22;5008;50.656;7.188;2024-03-23T07:35:03;8.10;99.90
9939;DHT22;5008;50.656;7.188;2024-03-23T07:37:29;8.10;99.90
9939;DHT22;5008;50.656;7.188;2024-03-23T07:39:56;8.10;99.90
9939;DHT22;5008;50.656;7.188;2024-03-23T07:42:23;8.20;99.90
9939;DHT22;5008;50.656;7.188;2024-03-23T07:44:52;8.20;99.90
9939;DHT22;5008;50.656;7.188;2024-03-23T07:47:17;8.30;99.90
9939;DHT22;5008;50.656;7.188;2024-03-23T07:49:44;8.30;99.90
9939;DHT22;5008;50.656;7.188;2024-03-23T07:52:11;8.40;99.90
9939;DHT22;5008;50.656;7.188;2024-03-23T07:54:38;8.40;99.90
9939;DHT22;5008;50.656;7.188;2024-03-23T07:57:04;8.40;99.90
9939;DHT22;5008;50.656;7.188;2024-03-23T07:59:31;8.50;99.90
9939;DHT22;5008;50.656;7.188;2024-03-23T08:01:59;8.50;99.90
9939;DHT22;5008;50.656;7.188;2024-03-23T08:04:32;8.50;99.90
9939;DHT22;5008;50.656;7.188;2024-03-23T08:06:58;8.70;99.90
9939;DHT22;5008;50.656;7.188;2024-03-23T08:09:27;8.80;99.90
9939;DHT22;5008;50.656;7.188;2024-03-23T08:11:54;8.80;99.90
9939;DHT22;5008;50.656;7.188;2024-03-23T08:14:19;8.90;99.90
9939;DHT22;5008;50.656;7.188;2024-03-23T08:16:50;9.00;99.90
9939;DHT22;5008;50.656;7.188;2024-03-23T08:19:18;9.10;99.90
9939;DHT22;5008;50.656;7.188;2024-03-23T08:21:45;9.30;99.90
9939;DHT22;5008;50.656;7.188;2024-03-23T08:24:11;9.60;99.90
9939;DHT22;5008;50.656;7.188;2024-03-23T08:26:40;9.40;99.90
9939;DHT22;5008;50.656;7.188;2024-03-23T08:29:06;8.70;99.90
9939;DHT22;5008;50.656;7.188;2024-03-23T08:31:32;8.20;99.90
9939;DHT22;5008;50.656;7.188;2024-03-23T08:33:58;8.10;99.90
9939;DHT22;5008;50.656;7.188;2024-03-23T08:36:25;8.10;99.90
9939;DHT22;5008;50.656;7.188;2024-03-23T08:38:52;7.90;99.90
9939;DHT22;5008;50.656;7.188;2024-03-23T08:41:20;7.80;99.90
9939;DHT22;5008;50.656;7.188;2024-03-23T08:43:47;7.70;99.90
9939;DHT22;5008;50.656;7.188;2024-03-23T08:46:15;7.70;99.90
9939;DHT22;5008;50.656;7.188;2024-03-23T08:48:42;7.60;99.90
9939;DHT22;5008;50.656;7.188;2024-03-23T08:51:12;7.60;99.90
9939;DHT22;5008;50.656;7.188;2024-03-23T08:53:38;7.70;99.90
9939;DHT22;5008;50.656;7.188;2024-03-23T08:56:10;7.80;99.90
9939;DHT22;5008;50.656;7.188;2024-03-23T08:58:38;7.90;99.90
9939;DHT22;5008;50.656;7.188;2024-03-23T09:01:07;8.10;99.90
9939;DHT22;5008;50.656;7.188;2024-03-23T09:03:34;8.30;99.90
9939;DHT22;5008;50.656;7.188;2024-03-23T09:06:00;8.40;99.90
9939;DHT22;5008;50.656;7.188;2024-03-23T09:08:27;8.40;99.90
9939;DHT22;5008;50.656;7.188;2024-03-23T09:10:53;8.70;99.90
9939;DHT22;5008;50.656;7.188;2024-03-23T09:13:20;8.80;99.90
9939;DHT22;5008;50.656;7.188;2024-03-23T09:15:47;9.00;99.90
9939;DHT22;5008;50.656;7.188;2024-03-23T09:18:16;9.20;99.90
9939;DHT22;5008;50.656;7.188;2024-03-23T09:20:42;9.30;99.90
9939;DHT22;5008;50.656;7.188;2024-03-23T09:23:09;9.50;99.90
9939;DHT22;5008;50.656;7.188;2024-03-23T09:25:36;9.70;99.90
9939;DHT22;5008;50.656;7.188;2024-03-23T09:28:04;10.00;99.90
9939;DHT22;5008;50.656;7.188;2024-03-23T09:30:31;10.20;99.90
9939;DHT22;5008;50.656;7.188;2024-03-23T09:32:58;10.20;99.90
9939;DHT22;5008;50.656;7.188;2024-03-23T09:35:25;10.10;99.90
9939;DHT22;5008;50.656;7.188;2024-03-23T09:37:52;10.00;99.90
9939;DHT22;5008;50.656;7.188;2024-03-23T09:40:18;9.90;99.90
9939;DHT22;5008;50.656;7.188;2024-03-23T09:42:50;9.70;99.90
9939;DHT22;5008;50.656;7.188;2024-03-23T09:45:19;9.50;99.90
9939;DHT22;5008;50.656;7.188;2024-03-23T09:47:47;9.40;99.90
9939;DHT22;5008;50.656;7.188;2024-03-23T09:50:14;9.20;99.90
9939;DHT22;5008;50.656;7.188;2024-03-23T09:52:45;9.10;99.90
9939;DHT22;5008;50.656;7.188;2024-03-23T09:55:12;9.00;99.90
9939;DHT22;5008;50.656;7.188;2024-03-23T09:57:39;9.10;99.90
9939;DHT22;5008;50.656;7.188;2024-03-23T10:00:07;9.30;99.90
9939;DHT22;5008;50.656;7.188;2024-03-23T10:02:34;9.40;99.90
9939;DHT22;5008;50.656;7.188;2024-03-23T10:05:00;9.50;99.90
9939;DHT22;5008;50.656;7.188;2024-03-23T10:07:26;9.80;99.90
9939;DHT22;5008;50.656;7.188;2024-03-23T10:09:55;10.10;99.90
9939;DHT22;5008;50.656;7.188;2024-03-23T10:12:23;10.40;99.90
9939;DHT22;5008;50.656;7.188;2024-03-23T10:14:50;10.60;99.90
9939;DHT22;5008;50.656;7.188;2024-03-23T10:17:17;10.40;99.90
9939;DHT22;5008;50.656;7.188;2024-03-23T10:19:44;10.20;99.90
9939;DHT22;5008;50.656;7.188;2024-03-23T10:22:14;10.30;99.90
9939;DHT22;5008;50.656;7.188;2024-03-23T10:24:41;10.40;99.90
9939;DHT22;5008;50.656;7.188;2024-03-23T10:27:09;10.50;99.90
9939;DHT22;5008;50.656;7.188;2024-03-23T10:29:35;10.40;99.90
9939;DHT22;5008;50.656;7.188;2024-03-23T10:32:08;10.40;99.90
9939;DHT22;5008;50.656;7.188;2024-03-23T10:34:36;10.60;99.90
9939;DHT22;5008;50.656;7.188;2024-03-23T10:37:03;10.40;99.90
9939;DHT22;5008;50.656;7.188;2024-03-23T10:39:33;10.10;99.90
9939;DHT22;5008;50.656;7.188;2024-03-23T10:42:02;9.40;99.90
9939;DHT22;5008;50.656;7.188;2024-03-23T10:44:30;8.60;99.90
9939;DHT22;5008;50.656;7.188;2024-03-23T10:46:57;7.80;99.90
9939;DHT22;5008;50.656;7.188;2024-03-23T10:49:27;7.40;99.90
9939;DHT22;5008;50.656;7.188;2024-03-23T10:51:56;6.90;99.90
9939;DHT22;5008;50.656;7.188;2024-03-23T10:54:24;6.50;99.90
9939;DHT22;5008;50.656;7.188;2024-03-23T10:56:55;6.40;99.90
9939;DHT22;5008;50.656;7.188;2024-03-23T10:59:22;6.10;99.90
9939;DHT22;5008;50.656;7.188;2024-03-23T11:01:58;6.00;99.90
9939;DHT22;5008;50.656;7.188;2024-03-23T11:04:30;6.00;99.90
9939;DHT22;5008;50.656;7.188;2024-03-23T11:10:00;6.40;99.90
9939;DHT22;5008;50.656;7.188;2024-03-23T11:12:28;6.70;99.90
9939;DHT22;5008;50.656;7.188;2024-03-23T11:14:59;7.10;99.90
9939;DHT22;5008;50.656;7.188;2024-03-23T11:17:32;7.40;99.90
9939;DHT22;5008;50.656;7.188;2024-03-23T11:19:59;7.70;99.90
9939;DHT22;5008;50.656;7.188;2024-03-23T11:22:39;7.80;99.90
9939;DHT22;5008;50.656;7.188;2024-03-23T11:25:16;7.80;99.90
9939;DHT22;5008;50.656;7.188;2024-03-23T11:27:44;7.90;99.90
9939;DHT22;5008;50.656;7.188;2024-03-23T11:30:31;8.10;99.90
9939;DHT22;5008;50.656;7.188;2024-03-23T11:32:59;8.10;99.90
9939;DHT22;5008;50.656;7.188;2024-03-23T11:35:28;8.10;99.90
9939;DHT22;5008;50.656;7.188;2024-03-23T11:38:04;8.30;99.90
9939;DHT22;5008;50.656;7.188;2024-03-23T11:40:30;8.40;99.90
9939;DHT22;5008;50.656;7.188;2024-03-23T11:42:58;8.80;99.90
9939;DHT22;5008;50.656;7.188;2024-03-23T11:45:24;9.10;99.90
9939;DHT22;5008;50.656;7.188;2024-03-23T11:48:04;9.30;99.90
9939;DHT22;5008;50.656;7.188;2024-03-23T11:50:30;9.50;99.90
9939;DHT22;5008;50.656;7.188;2024-03-23T11:53:14;9.60;99.90
9939;DHT22;5008;50.656;7.188;2024-03-23T11:55:46;9.70;99.90
9939;DHT22;5008;50.656;7.188;2024-03-23T11:58:13;9.90;99.90
9939;DHT22;5008;50.656;7.188;2024-03-23T12:00:40;10.20;99.90
9939;DHT22;5008;50.656;7.188;2024-03-23T12:03:08;10.60;99.90
9939;DHT22;5008;50.656;7.188;2024-03-23T12:05:37;11.00;99.90
9939;DHT22;5008;50.656;7.188;2024-03-23T12:08:23;10.90;99.90
9939;DHT22;5008;50.656;7.188;2024-03-23T12:10:52;10.40;99.90
9939;DHT22;5008;50.656;7.188;2024-03-23T12:13:19;10.20;99.90
9939;DHT22;5008;50.656;7.188;2024-03-23T12:15:47;10.00;99.90
9939;DHT22;5008;50.656;7.188;2024-03-23T12:18:30;9.80;99.90
9939;DHT22;5008;50.656;7.188;2024-03-23T12:20:56;9.80;99.90
9939;DHT22;5008;50.656;7.188;2024-03-23T12:23:22;9.90;99.90
9939;DHT22;5008;50.656;7.188;2024-03-23T12:25:49;10.40;99.90
9939;DHT22;5008;50.656;7.188;2024-03-23T12:28:15;10.80;99.90
9939;DHT22;5008;50.656;7.188;2024-03-23T12:30:42;11.10;99.90
9939;DHT22;5008;50.656;7.188;2024-03-23T12:33:08;11.20;99.90
9939;DHT22;5008;50.656;7.188;2024-03-23T12:35:36;12.10;99.90
9939;DHT22;5008;50.656;7.188;2024-03-23T12:38:02;12.00;99.90
9939;DHT22;5008;50.656;7.188;2024-03-23T12:40:30;12.40;99.90
9939;DHT22;5008;50.656;7.188;2024-03-23T12:42:56;12.80;99.90
9939;DHT22;5008;50.656;7.188;2024-03-23T12:45:22;13.50;99.90
9939;DHT22;5008;50.656;7.188;2024-03-23T12:47:48;13.40;99.90
9939;DHT22;5008;50.656;7.188;2024-03-23T12:50:16;12.90;99.90
9939;DHT22;5008;50.656;7.188;2024-03-23T12:52:44;13.20;99.90
9939;DHT22;5008;50.656;7.188;2024-03-23T12:55:10;13.80;99.90
9939;DHT22;5008;50.656;7.188;2024-03-23T12:57:36;13.90;99.90
9939;DHT22;5008;50.656;7.188;2024-03-23T13:00:04;13.60;99.90
9939;DHT22;5008;50.656;7.188;2024-03-23T13:02:31;12.90;99.90
9939;DHT22;5008;50.656;7.188;2024-03-23T13:05:00;12.30;99.90
9939;DHT22;5008;50.656;7.188;2024-03-23T13:07:26;12.40;99.90
9939;DHT22;5008;50.656;7.188;2024-03-23T13:09:54;12.80;99.90
9939;DHT22;5008;50.656;7.188;2024-03-23T13:12:22;13.10;99.90
9939;DHT22;5008;50.656;7.188;2024-03-23T13:14:49;13.70;99.90
9939;DHT22;5008;50.656;7.188;2024-03-23T13:17:14;14.10;99.90
9939;DHT22;5008;50.656;7.188;2024-03-23T13:19:42;13.80;99.90
9939;DHT22;5008;50.656;7.188;2024-03-23T13:22:33;12.80;99.90
9939;DHT22;5008;50.656;7.188;2024-03-23T13:25:01;11.90;99.90
9939;DHT22;5008;50.656;7.188;2024-03-23T13:27:30;11.40;99.90
9939;DHT22;5008;50.656;7.188;2024-03-23T13:29:56;12.40;99.90
9939;DHT22;5008;50.656;7.188;2024-03-23T13:32:23;13.40;99.90
9939;DHT22;5008;50.656;7.188;2024-03-23T13:34:50;14.10;99.90
9939;DHT22;5008;50.656;7.188;2024-03-23T13:37:16;14.50;99.90
9939;DHT22;5008;50.656;7.188;2024-03-23T13:39:42;14.80;99.90
9939;DHT22;5008;50.656;7.188;2024-03-23T13:42:10;15.10;99.90
9939;DHT22;5008;50.656;7.188;2024-03-23T13:44:38;14.50;99.90
9939;DHT22;5008;50.656;7.188;2024-03-23T13:47:04;13.70;99.90
9939;DHT22;5008;50.656;7.188;2024-03-23T13:49:31;12.80;99.90
9939;DHT22;5008;50.656;7.188;2024-03-23T13:51:58;13.00;99.90
9939;DHT22;5008;50.656;7.188;2024-03-23T13:54:25;13.50;99.90
9939;DHT22;5008;50.656;7.188;2024-03-23T13:56:51;14.90;99.90
9939;DHT22;5008;50.656;7.188;2024-03-23T13:59:19;16.40;99.70
9939;DHT22;5008;50.656;7.188;2024-03-23T14:01:45;18.30;99.70
9939;DHT22;5008;50.656;7.188;2024-03-23T14:04:12;18.50;98.20
9939;DHT22;5008;50.656;7.188;2024-03-23T14:06:38;18.60;99.30
9939;DHT22;5008;50.656;7.188;2024-03-23T14:09:05;17.60;99.10
9939;DHT22;5008;50.656;7.188;2024-03-23T14:11:30;16.20;98.90
9939;DHT22;5008;50.656;7.188;2024-03-23T14:13:57;15.40;99.90
9939;DHT22;5008;50.656;7.188;2024-03-23T14:16:24;14.30;99.90
9939;DHT22;5008;50.656;7.188;2024-03-23T14:18:51;13.30;99.90
9939;DHT22;5008;50.656;7.188;2024-03-23T14:21:17;12.80;99.90
9939;DHT22;5008;50.656;7.188;2024-03-23T14:23:44;12.40;99.90
9939;DHT22;5008;50.656;7.188;2024-03-23T14:26:10;12.10;99.90
9939;DHT22;5008;50.656;7.188;2024-03-23T14:28:36;12.10;99.90
9939;DHT22;5008;50.656;7.188;2024-03-23T14:31:02;12.30;99.90
9939;DHT22;5008;50.656;7.188;2024-03-23T14:33:37;12.70;99.90
9939;DHT22;5008;50.656;7.188;2024-03-23T14:36:04;12.90;99.90
9939;DHT22;5008;50.656;7.188;2024-03-23T14:38:30;13.10;99.90
9939;DHT22;5008;50.656;7.188;2024-03-23T14:40:58;13.90;99.90
9939;DHT22;5008;50.656;7.188;2024-03-23T14:43:25;14.40;99.90
9939;DHT22;5008;50.656;7.188;2024-03-23T14:46:07;14.10;99.90
9939;DHT22;5008;50.656;7.188;2024-03-23T14:48:42;13.80;99.90
9939;DHT22;5008;50.656;7.188;2024-03-23T14:51:08;13.30;99.90
9939;DHT22;5008;50.656;7.188;2024-03-23T14:53:36;13.20;99.90
9939;DHT22;5008;50.656;7.188;2024-03-23T14:56:04;12.60;99.90
9939;DHT22;5008;50.656;7.188;2024-03-23T14:58:31;11.90;99.90
9939;DHT22;5008;50.656;7.188;2024-03-23T15:01:00;11.50;99.90
9939;DHT22;5008;50.656;7.188;2024-03-23T15:03:26;10.90;99.90
9939;DHT22;5008;50.656;7.188;2024-03-23T15:05:55;10.90;99.90
9939;DHT22;5008;50.656;7.188;2024-03-23T15:08:21;10.90;99.90
9939;DHT22;5008;50.656;7.188;2024-03-23T15:10:48;10.60;99.90
9939;DHT22;5008;50.656;7.188;2024-03-23T15:13:17;10.30;99.90
9939;DHT22;5008;50.656;7.188;2024-03-23T15:15:44;10.10;99.90
9939;DHT22;5008;50.656;7.188;2024-03-23T15:18:11;10.00;99.90
9939;DHT22;5008;50.656;7.188;2024-03-23T15:20:40;9.90;99.90
9939;DHT22;5008;50.656;7.188;2024-03-23T15:23:08;9.90;99.90
9939;DHT22;5008;50.656;7.188;2024-03-23T15:25:34;9.70;99.90
9939;DHT22;5008;50.656;7.188;2024-03-23T15:28:17;9.60;99.90
9939;DHT22;5008;50.656;7.188;2024-03-23T15:30:46;9.70;99.90
9939;DHT22;5008;50.656;7.188;2024-03-23T15:33:12;9.70;99.90
9939;DHT22;5008;50.656;7.188;2024-03-23T15:35:39;9.70;99.90
9939;DHT22;5008;50.656;7.188;2024-03-23T15:38:04;9.70;99.90
9939;DHT22;5008;50.656;7.188;2024-03-23T15:40:32;9.70;99.90
9939;DHT22;5008;50.656;7.188;2024-03-23T15:42:58;9.80;99.90
9939;DHT22;5008;50.656;7.188;2024-03-23T15:45:26;9.70;99.90
9939;DHT22;5008;50.656;7.188;2024-03-23T15:47:52;9.80;99.90
9939;DHT22;5008;50.656;7.188;2024-03-23T15:50:26;9.80;99.90
9939;DHT22;5008;50.656;7.188;2024-03-23T15:52:51;9.90;99.90
9939;DHT22;5008;50.656;7.188;2024-03-23T15:55:18;9.80;99.90
9939;DHT22;5008;50.656;7.188;2024-03-23T15:57:45;9.70;99.90
9939;DHT22;5008;50.656;7.188;2024-03-23T16:00:13;9.60;99.90
9939;DHT22;5008;50.656;7.188;2024-03-23T16:02:39;9.60;99.90
9939;DHT22;5008;50.656;7.188;2024-03-23T16:05:06;9.60;99.90
9939;DHT22;5008;50.656;7.188;2024-03-23T16:07:34;9.70;99.90
9939;DHT22;5008;50.656;7.188;2024-03-23T16:10:00;9.90;99.90
9939;DHT22;5008;50.656;7.188;2024-03-23T16:12:30;10.00;99.90
9939;DHT22;5008;50.656;7.188;2024-03-23T16:14:58;10.10;99.90
9939;DHT22;5008;50.656;7.188;2024-03-23T16:17:25;10.00;99.90
9939;DHT22;5008;50.656;7.188;2024-03-23T16:19:51;10.00;99.90
9939;DHT22;5008;50.656;7.188;2024-03-23T16:22:17;10.10;99.90
9939;DHT22;5008;50.656;7.188;2024-03-23T16:24:44;9.90;99.90
9939;DHT22;5008;50.656;7.188;2024-03-23T16:27:10;9.70;99.90
9939;DHT22;5008;50.656;7.188;2024-03-23T16:29:37;9.60;99.90
9939;DHT22;5008;50.656;7.188;2024-03-23T16:32:04;9.50;99.90
9939;DHT22;5008;50.656;7.188;2024-03-23T16:34:31;9.30;99.90
9939;DHT22;5008;50.656;7.188;2024-03-23T16:36:57;9.10;99.90
9939;DHT22;5008;50.656;7.188;2024-03-23T16:39:23;8.90;99.90
9939;DHT22;5008;50.656;7.188;2024-03-23T16:41:50;8.90;99.90
9939;DHT22;5008;50.656;7.188;2024-03-23T16:44:17;8.80;99.90
9939;DHT22;5008;50.656;7.188;2024-03-23T16:46:47;8.70;99.90
9939;DHT22;5008;50.656;7.188;2024-03-23T16:49:15;8.60;99.90
9939;DHT22;5008;50.656;7.188;2024-03-23T16:51:41;8.50;99.90
9939;DHT22;5008;50.656;7.188;2024-03-23T16:54:07;8.60;99.90
9939;DHT22;5008;50.656;7.188;2024-03-23T16:56:33;8.40;99.90
9939;DHT22;5008;50.656;7.188;2024-03-23T16:59:00;8.40;99.90
9939;DHT22;5008;50.656;7.188;2024-03-23T17:01:26;8.40;99.90
9939;DHT22;5008;50.656;7.188;2024-03-23T17:03:53;8.00;99.90
9939;DHT22;5008;50.656;7.188;2024-03-23T17:06:20;7.70;99.90
9939;DHT22;5008;50.656;7.188;2024-03-23T17:08:48;7.50;99.90
9939;DHT22;5008;50.656;7.188;2024-03-23T17:11:14;7.40;99.90
9939;DHT22;5008;50.656;7.188;2024-03-23T17:13:42;7.40;99.90
9939;DHT22;5008;50.656;7.188;2024-03-23T17:16:08;7.40;99.90
9939;DHT22;5008;50.656;7.188;2024-03-23T17:18:36;7.60;99.90
9939;DHT22;5008;50.656;7.188;2024-03-23T17:21:02;7.70;99.90
9939;DHT22;5008;50.656;7.188;2024-03-23T17:23:30;7.80;99.90
9939;DHT22;5008;50.656;7.188;2024-03-23T17:25:57;8.00;99.90
9939;DHT22;5008;50.656;7.188;2024-03-23T17:28:24;8.00;99.90
9939;DHT22;5008;50.656;7.188;2024-03-23T17:30:50;7.90;99.90
9939;DHT22;5008;50.656;7.188;2024-03-23T17:33:17;7.80;99.90
9939;DHT22;5008;50.656;7.188;2024-03-23T17:35:43;7.70;99.90
9939;DHT22;5008;50.656;7.188;2024-03-23T17:38:10;7.60;99.90
9939;DHT22;5008;50.656;7.188;2024-03-23T17:40:37;7.60;99.90
9939;DHT22;5008;50.656;7.188;2024-03-23T17:43:04;7.50;99.90
9939;DHT22;5008;50.656;7.188;2024-03-23T17:45:30;7.40;99.90
9939;DHT22;5008;50.656;7.188;2024-03-23T17:47:57;7.30;99.90
9939;DHT22;5008;50.656;7.188;2024-03-23T17:50:23;7.30;99.90
9939;DHT22;5008;50.656;7.188;2024-03-23T17:52:50;7.20;99.90
9939;DHT22;5008;50.656;7.188;2024-03-23T17:55:16;7.10;99.90
9939;DHT22;5008;50.656;7.188;2024-03-23T17:57:44;7.10;99.90
9939;DHT22;5008;50.656;7.188;2024-03-23T18:00:11;7.00;99.90
9939;DHT22;5008;50.656;7.188;2024-03-23T18:02:40;6.90;99.90
9939;DHT22;5008;50.656;7.188;2024-03-23T18:05:06;6.80;99.90
9939;DHT22;5008;50.656;7.188;2024-03-23T18:07:33;6.70;99.90
9939;DHT22;5008;50.656;7.188;2024-03-23T18:09:59;6.70;99.90
9939;DHT22;5008;50.656;7.188;2024-03-23T18:12:26;6.60;99.90
9939;DHT22;5008;50.656;7.188;2024-03-23T18:15:02;6.60;99.90
9939;DHT22;5008;50.656;7.188;2024-03-23T18:17:30;6.50;99.90
9939;DHT22;5008;50.656;7.188;2024-03-23T18:19:55;6.50;99.90
9939;DHT22;5008;50.656;7.188;2024-03-23T18:22:22;6.50;99.90
9939;DHT22;5008;50.656;7.188;2024-03-23T18:24:48;6.40;99.90
9939;DHT22;5008;50.656;7.188;2024-03-23T18:27:15;6.40;99.90
9939;DHT22;5008;50.656;7.188;2024-03-23T18:29:40;6.50;99.90
9939;DHT22;5008;50.656;7.188;2024-03-23T18:32:09;6.40;99.90
9939;DHT22;5008;50.656;7.188;2024-03-23T18:34:35;6.50;99.90
9939;DHT22;5008;50.656;7.188;2024-03-23T18:37:01;6.50;99.90
9939;DHT22;5008;50.656;7.188;2024-03-23T18:39:27;6.50;99.90
9939;DHT22;5008;50.656;7.188;2024-03-23T18:41:54;6.50;99.90
9939;DHT22;5008;50.656;7.188;2024-03-23T18:44:20;6.40;99.90
9939;DHT22;5008;50.656;7.188;2024-03-23T18:46:47;6.40;99.90
9939;DHT22;5008;50.656;7.188;2024-03-23T18:49:14;6.40;99.90
9939;DHT22;5008;50.656;7.188;2024-03-23T18:51:42;6.50;99.90
9939;DHT22;5008;50.656;7.188;2024-03-23T18:54:08;6.60;99.90
9939;DHT22;5008;50.656;7.188;2024-03-23T18:56:34;6.60;99.90
9939;DHT22;5008;50.656;7.188;2024-03-23T18:59:00;6.70;99.90
9939;DHT22;5008;50.656;7.188;2024-03-23T19:01:27;6.70;99.90
9939;DHT22;5008;50.656;7.188;2024-03-23T19:03:53;6.80;99.90
9939;DHT22;5008;50.656;7.188;2024-03-23T19:06:21;6.80;99.90
9939;DHT22;5008;50.656;7.188;2024-03-23T19:08:47;6.80;99.90
9939;DHT22;5008;50.656;7.188;2024-03-23T19:11:13;6.80;99.90
9939;DHT22;5008;50.656;7.188;2024-03-23T19:13:39;6.70;99.90
9939;DHT22;5008;50.656;7.188;2024-03-23T19:16:06;6.80;99.90
9939;DHT22;5008;50.656;7.188;2024-03-23T19:18:32;6.70;99.90
9939;DHT22;5008;50.656;7.188;2024-03-23T19:21:00;6.60;99.90
9939;DHT22;5008;50.656;7.188;2024-03-23T19:23:28;6.60;99.90
9939;DHT22;5008;50.656;7.188;2024-03-23T19:25:56;6.50;99.90
9939;DHT22;5008;50.656;7.188;2024-03-23T19:28:22;6.40;99.90
9939;DHT22;5008;50.656;7.188;2024-03-23T19:30:49;6.30;99.90
9939;DHT22;5008;50.656;7.188;2024-03-23T19:33:15;6.30;99.90
9939;DHT22;5008;50.656;7.188;2024-03-23T19:35:42;6.30;99.90
9939;DHT22;5008;50.656;7.188;2024-03-23T19:38:08;6.30;99.90
9939;DHT22;5008;50.656;7.188;2024-03-23T19:40:36;6.40;99.90
9939;DHT22;5008;50.656;7.188;2024-03-23T19:43:02;6.30;99.90
9939;DHT22;5008;50.656;7.188;2024-03-23T19:45:29;6.30;99.90
9939;DHT22;5008;50.656;7.188;2024-03-23T19:47:55;6.40;99.90
9939;DHT22;5008;50.656;7.188;2024-03-23T19:50:22;6.40;99.90
9939;DHT22;5008;50.656;7.188;2024-03-23T19:52:48;6.40;99.90
9939;DHT22;5008;50.656;7.188;2024-03-23T19:55:15;6.40;99.90
9939;DHT22;5008;50.656;7.188;2024-03-23T19:57:43;6.40;99.90
9939;DHT22;5008;50.656;7.188;2024-03-23T20:00:11;6.40;99.90
9939;DHT22;5008;50.656;7.188;2024-03-23T20:02:37;6.40;99.90
9939;DHT22;5008;50.656;7.188;2024-03-23T20:05:04;6.40;99.90
9939;DHT22;5008;50.656;7.188;2024-03-23T20:07:30;6.40;99.90
9939;DHT22;5008;50.656;7.188;2024-03-23T20:09:57;6.40;99.90
9939;DHT22;5008;50.656;7.188;2024-03-23T20:12:22;6.50;99.90
9939;DHT22;5008;50.656;7.188;2024-03-23T20:14:51;6.60;99.90
9939;DHT22;5008;50.656;7.188;2024-03-23T20:17:16;6.60;99.90
9939;DHT22;5008;50.656;7.188;2024-03-23T20:19:43;6.70;99.90
9939;DHT22;5008;50.656;7.188;2024-03-23T20:22:10;6.70;99.90
9939;DHT22;5008;50.656;7.188;2024-03-23T20:24:37;6.70;99.90
9939;DHT22;5008;50.656;7.188;2024-03-23T20:27:03;6.70;99.90
9939;DHT22;5008;50.656;7.188;2024-03-23T20:29:38;6.70;99.90
9939;DHT22;5008;50.656;7.188;2024-03-23T20:32:06;6.50;99.90
9939;DHT22;5008;50.656;7.188;2024-03-23T20:34:33;6.60;99.90
9939;DHT22;5008;50.656;7.188;2024-03-23T20:36:59;6.50;99.90
9939;DHT22;5008;50.656;7.188;2024-03-23T20:39:26;6.50;99.90
9939;DHT22;5008;50.656;7.188;2024-03-23T20:41:51;6.50;99.90
9939;DHT22;5008;50.656;7.188;2024-03-23T20:44:19;6.60;99.90
9939;DHT22;5008;50.656;7.188;2024-03-23T20:46:45;6.50;99.90
9939;DHT22;5008;50.656;7.188;2024-03-23T20:49:13;6.60;99.90
9939;DHT22;5008;50.656;7.188;2024-03-23T20:51:39;6.70;99.90
9939;DHT22;5008;50.656;7.188;2024-03-23T20:54:05;6.70;99.90
9939;DHT22;5008;50.656;7.188;2024-03-23T20:56:32;6.90;99.90
9939;DHT22;5008;50.656;7.188;2024-03-23T20:58:59;6.80;99.90
9939;DHT22;5008;50.656;7.188;2024-03-23T21:01:31;6.80;99.90
9939;DHT22;5008;50.656;7.188;2024-03-23T21:03:59;6.80;99.90
9939;DHT22;5008;50.656;7.188;2024-03-23T21:06:26;6.80;99.90
9939;DHT22;5008;50.656;7.188;2024-03-23T21:08:53;6.80;99.90
9939;DHT22;5008;50.656;7.188;2024-03-23T21:11:19;6.70;99.90
9939;DHT22;5008;50.656;7.188;2024-03-23T21:13:45;6.60;99.90
9939;DHT22;5008;50.656;7.188;2024-03-23T21:16:15;6.50;99.90
9939;DHT22;5008;50.656;7.188;2024-03-23T21:18:42;6.50;99.90